createdAt,value
2022-10-02T00:01:27.289Z,13.85
2022-10-02T00:03:57.579Z,13.57
2022-10-02T00:06:27.497Z,13.57
2022-10-02T00:08:59.855Z,13.72
2022-10-02T00:11:29.596Z,13.64
2022-10-02T00:13:59.236Z,13.74
2022-10-02T00:16:33.628Z,13.74
2022-10-02T00:19:03.876Z,13.78
2022-10-02T00:21:38.516Z,13.94
2022-10-02T00:24:07.768Z,13.67
2022-10-02T00:26:39.792Z,13.82
2022-10-02T00:29:17.529Z,13.53
2022-10-02T00:31:49.444Z,13.65
2022-10-02T00:34:27.702Z,13.79
2022-10-02T00:37:00.609Z,13.65
2022-10-02T00:39:40.125Z,13.59
2022-10-02T00:42:32.401Z,13.66
2022-10-02T00:45:21.173Z,13.61
2022-10-02T00:47:54.377Z,13.72
2022-10-02T00:50:33.029Z,13.60
2022-10-02T00:53:10.184Z,13.57
2022-10-02T00:55:54.109Z,13.48
2022-10-02T00:58:49.848Z,13.52
2022-10-02T01:01:43.711Z,13.44
2022-10-02T01:04:14.725Z,13.49
2022-10-02T01:06:43.847Z,13.58
2022-10-02T01:09:12.293Z,13.60
2022-10-02T01:11:40.600Z,13.45
2022-10-02T01:14:08.705Z,13.53
2022-10-02T01:16:36.516Z,13.64
2022-10-02T01:19:04.566Z,13.41
2022-10-02T01:21:37.808Z,13.70
2022-10-02T01:24:11.089Z,13.53
2022-10-02T01:26:40.124Z,13.53
2022-10-02T01:29:07.814Z,13.52
2022-10-02T01:31:36.678Z,13.46
2022-10-02T01:34:04.584Z,13.48
2022-10-02T01:36:32.391Z,13.54
2022-10-02T01:39:00.189Z,13.57
2022-10-02T01:41:27.858Z,13.47
2022-10-02T01:43:59.288Z,13.42
2022-10-02T01:46:37.116Z,13.35
2022-10-02T01:49:24.397Z,13.40
2022-10-02T01:52:14.272Z,13.32
2022-10-02T01:54:51.649Z,13.32
2022-10-02T01:57:26.536Z,13.33
2022-10-02T02:00:06.133Z,13.54
2022-10-02T02:02:42.692Z,13.37
2022-10-02T02:05:13.309Z,13.73
2022-10-02T02:07:47.303Z,13.71
2022-10-02T02:10:19.553Z,13.53
2022-10-02T02:12:52.129Z,13.36
2022-10-02T02:15:24.752Z,13.40
2022-10-02T02:17:55.597Z,13.40
2022-10-02T02:20:26.418Z,13.42
2022-10-02T02:22:55.492Z,13.62
2022-10-02T02:25:26.508Z,13.64
2022-10-02T02:27:57.299Z,13.62
2022-10-02T02:30:26.613Z,13.38
2022-10-02T02:32:56.614Z,13.49
2022-10-02T02:35:27.228Z,13.51
2022-10-02T02:37:57.566Z,13.46
2022-10-02T02:40:28.461Z,13.47
2022-10-02T02:42:59.117Z,13.41
2022-10-02T02:45:30.441Z,13.40
2022-10-02T02:48:03.989Z,13.66
2022-10-02T02:50:34.267Z,13.58
2022-10-02T02:53:05.932Z,13.43
2022-10-02T02:55:37.605Z,13.55
2022-10-02T02:58:11.050Z,13.40
2022-10-02T03:00:40.380Z,13.29
2022-10-02T03:03:08.298Z,13.48
2022-10-02T03:05:37.356Z,13.49
2022-10-02T03:08:07.038Z,13.55
2022-10-02T03:10:42.788Z,13.69
2022-10-02T03:13:22.680Z,13.58
2022-10-02T03:16:02.425Z,13.79
2022-10-02T03:18:46.679Z,13.50
2022-10-02T03:21:16.569Z,13.72
2022-10-02T03:23:55.728Z,13.72
2022-10-02T03:26:31.880Z,13.92
2022-10-02T03:29:02.642Z,13.73
2022-10-02T03:31:33.387Z,13.77
2022-10-02T03:34:02.547Z,13.78
2022-10-02T03:36:31.056Z,13.70
2022-10-02T03:39:24.135Z,13.65
2022-10-02T03:42:06.651Z,13.81
2022-10-02T03:44:34.453Z,13.69
2022-10-02T03:47:04.019Z,13.61
2022-10-02T03:49:31.691Z,13.53
2022-10-02T03:51:59.387Z,13.53
2022-10-02T03:54:27.569Z,13.70
2022-10-02T03:56:56.871Z,13.48
2022-10-02T03:59:35.746Z,13.69
2022-10-02T04:02:08.429Z,13.67
2022-10-02T04:04:43.725Z,13.43
2022-10-02T04:07:16.058Z,13.40
2022-10-02T04:09:47.886Z,13.52
2022-10-02T04:12:17.904Z,13.25
2022-10-02T04:14:50.363Z,13.19
2022-10-02T04:17:21.892Z,13.46
2022-10-02T04:19:52.866Z,13.45
2022-10-02T04:22:27.542Z,13.63
2022-10-02T04:24:59.780Z,13.50
2022-10-02T04:27:33.765Z,13.40
2022-10-02T04:30:05.730Z,13.45
2022-10-02T04:32:37.800Z,13.48
2022-10-02T04:35:10.308Z,13.27
2022-10-02T04:38:00.141Z,13.48
2022-10-02T04:40:43.412Z,13.46
2022-10-02T04:43:24.993Z,13.37
2022-10-02T04:46:05.253Z,13.52
2022-10-02T04:49:20.860Z,13.56
2022-10-02T04:52:07.057Z,13.53
2022-10-02T04:54:44.473Z,13.19
2022-10-02T04:57:27.993Z,13.32
2022-10-02T05:00:08.921Z,13.10
2022-10-02T05:02:54.592Z,13.11
2022-10-02T05:05:28.649Z,13.17
2022-10-02T05:08:17.450Z,13.12
2022-10-02T05:11:03.861Z,13.09
2022-10-02T05:13:42.544Z,13.17
2022-10-02T05:16:20.176Z,13.09
2022-10-02T05:18:59.149Z,13.21
2022-10-02T05:21:44.980Z,12.95
2022-10-02T05:24:27.837Z,13.14
2022-10-02T05:27:10.349Z,13.27
2022-10-02T05:29:54.149Z,13.17
2022-10-02T05:33:11.604Z,13.15
2022-10-02T05:36:10.385Z,13.36
2022-10-02T05:39:07.200Z,13.36
2022-10-02T05:41:59.972Z,13.36
2022-10-02T05:44:49.649Z,13.10
2022-10-02T05:47:39.317Z,13.18
2022-10-02T05:50:28.693Z,13.19
2022-10-02T05:53:20.314Z,13.27
2022-10-02T05:56:09.518Z,13.16
2022-10-02T05:58:59.940Z,13.36
2022-10-02T06:01:48.834Z,13.25
2022-10-02T06:04:38.925Z,13.26
2022-10-02T06:07:27.805Z,13.23
2022-10-02T06:10:17.177Z,13.26
2022-10-02T06:13:09.030Z,13.30
2022-10-02T06:16:04.969Z,13.43
2022-10-02T06:18:55.390Z,13.28
2022-10-02T06:21:44.881Z,13.19
2022-10-02T06:24:35.225Z,13.35
2022-10-02T06:27:28.081Z,13.51
2022-10-02T06:30:16.433Z,13.30
2022-10-02T06:33:06.443Z,13.31
2022-10-02T06:36:15.110Z,13.28
2022-10-02T06:39:10.563Z,13.29
2022-10-02T06:42:04.961Z,13.25
2022-10-02T06:45:00.192Z,13.20
2022-10-02T06:48:06.309Z,13.13
2022-10-02T06:51:02.420Z,13.29
2022-10-02T06:54:04.136Z,13.36
2022-10-02T06:57:12.303Z,13.45
2022-10-02T07:00:09.393Z,13.49
2022-10-02T07:03:06.558Z,13.49
2022-10-02T07:06:22.243Z,13.63
2022-10-02T07:09:30.580Z,13.67
2022-10-02T07:12:33.934Z,13.82
2022-10-02T07:15:41.050Z,13.55
2022-10-02T07:18:37.199Z,13.66
2022-10-02T07:21:30.369Z,13.79
2022-10-02T07:24:32.014Z,13.82
2022-10-02T07:27:22.673Z,13.59
2022-10-02T07:30:11.364Z,13.54
2022-10-02T07:33:04.089Z,13.67
2022-10-02T07:35:56.125Z,13.48
2022-10-02T07:38:55.937Z,13.75
2022-10-02T07:42:06.374Z,13.72
2022-10-02T07:45:34.221Z,13.78
2022-10-02T07:48:35.370Z,13.85
2022-10-02T07:51:47.924Z,13.98
2022-10-02T07:55:18.772Z,14.10
2022-10-02T07:58:07.332Z,14.13
2022-10-02T08:00:58.485Z,14.19
2022-10-02T08:03:46.684Z,14.19
2022-10-02T08:06:35.093Z,14.30
2022-10-02T08:09:24.498Z,14.27
2022-10-02T08:12:22.393Z,14.15
2022-10-02T08:15:15.632Z,14.20
2022-10-02T08:18:30.008Z,14.36
2022-10-02T08:21:15.452Z,14.39
2022-10-02T08:24:06.265Z,14.49
2022-10-02T08:26:56.631Z,14.40
2022-10-02T08:29:45.977Z,14.42
2022-10-02T08:32:36.113Z,14.36
2022-10-02T08:35:23.538Z,14.36
2022-10-02T08:38:33.816Z,14.49
2022-10-02T08:41:30.410Z,14.32
2022-10-02T08:44:22.449Z,14.38
2022-10-02T08:47:16.502Z,14.43
2022-10-02T08:50:19.936Z,14.36
2022-10-02T08:53:19.249Z,14.38
2022-10-02T08:56:05.882Z,14.31
2022-10-02T08:59:05.453Z,14.42
2022-10-02T09:01:49.477Z,14.47
2022-10-02T09:04:42.260Z,14.34
2022-10-02T09:07:46.216Z,14.53
2022-10-02T09:10:49.693Z,14.55
2022-10-02T09:13:44.671Z,14.62
2022-10-02T09:16:13.864Z,14.66
2022-10-02T09:18:52.220Z,14.75
2022-10-02T09:21:20.704Z,14.76
2022-10-02T09:24:13.189Z,14.59
2022-10-02T09:27:22.341Z,14.74
2022-10-02T09:30:27.901Z,14.86
2022-10-02T09:33:16.182Z,14.78
2022-10-02T09:36:12.045Z,14.89
2022-10-02T09:39:31.039Z,15.01
2022-10-02T09:42:37.652Z,15.04
2022-10-02T09:45:37.594Z,15.02
2022-10-02T09:48:23.642Z,14.94
2022-10-02T09:51:28.361Z,14.95
2022-10-02T09:54:48.042Z,15.02
2022-10-02T09:57:44.265Z,15.06
2022-10-02T10:00:22.485Z,15.25
2022-10-02T10:03:22.537Z,14.75
2022-10-02T10:05:58.805Z,14.72
2022-10-02T10:09:04.588Z,14.79
2022-10-02T10:12:15.537Z,14.72
2022-10-02T10:15:24.129Z,14.58
2022-10-02T10:18:34.067Z,14.68
2022-10-02T10:21:59.793Z,14.95
2022-10-02T10:25:10.684Z,14.90
2022-10-02T10:28:09.381Z,15.01
2022-10-02T10:31:31.386Z,15.03
2022-10-02T10:34:48.579Z,15.03
2022-10-02T10:38:12.424Z,14.97
2022-10-02T10:41:22.852Z,15.15
2022-10-02T10:44:32.857Z,15.11
2022-10-02T10:47:26.513Z,15.22
2022-10-02T10:50:25.694Z,15.34
2022-10-02T10:53:24.774Z,15.49
2022-10-02T10:56:36.943Z,15.45
2022-10-02T10:59:57.069Z,15.44
2022-10-02T11:03:17.371Z,15.52
2022-10-02T11:06:27.320Z,15.69
2022-10-02T11:09:35.793Z,15.67
2022-10-02T11:12:39.025Z,15.59
2022-10-02T11:15:39.399Z,15.65
2022-10-02T11:18:39.913Z,15.51
2022-10-02T11:21:56.357Z,15.60
2022-10-02T11:25:03.494Z,15.52
2022-10-02T11:28:10.356Z,15.62
2022-10-02T11:31:10.041Z,15.62
2022-10-02T11:34:19.696Z,15.61
2022-10-02T11:37:17.215Z,15.61
2022-10-02T11:40:22.104Z,15.50
2022-10-02T11:43:25.666Z,15.55
2022-10-02T11:46:24.318Z,15.68
2022-10-02T11:49:32.690Z,15.74
2022-10-02T11:52:32.092Z,15.79
2022-10-02T11:55:30.061Z,15.89
2022-10-02T11:58:23.902Z,15.86
2022-10-02T12:01:17.399Z,15.76
2022-10-02T12:04:22.854Z,15.87
2022-10-02T12:07:20.741Z,15.97
2022-10-02T12:10:20.334Z,15.99
2022-10-02T12:13:21.256Z,15.88
2022-10-02T12:16:12.001Z,15.96
2022-10-02T12:19:06.469Z,15.92
2022-10-02T12:22:19.033Z,15.94
2022-10-02T12:25:37.171Z,15.91
2022-10-02T12:28:31.560Z,16.12
2022-10-02T12:31:05.198Z,15.95
2022-10-02T12:33:40.861Z,15.95
2022-10-02T12:36:35.713Z,15.88
2022-10-02T12:39:12.131Z,15.86
2022-10-02T12:41:54.512Z,15.91
2022-10-02T12:44:45.003Z,15.74
2022-10-02T12:47:49.247Z,15.66
2022-10-02T12:50:27.736Z,15.73
2022-10-02T12:53:18.398Z,15.86
2022-10-02T12:56:03.059Z,15.93
2022-10-02T12:58:42.090Z,15.95
2022-10-02T13:01:49.885Z,15.90
2022-10-02T13:04:37.943Z,16.08
2022-10-02T13:07:42.543Z,16.03
2022-10-02T13:10:16.433Z,16.16
2022-10-02T13:12:56.357Z,16.06
2022-10-02T13:15:35.752Z,16.18
2022-10-02T13:18:17.594Z,16.21
2022-10-02T13:20:50.211Z,16.26
2022-10-02T13:23:25.440Z,16.20
2022-10-02T13:26:00.658Z,16.12
2022-10-02T13:28:49.122Z,16.15
2022-10-02T13:31:26.865Z,16.12
2022-10-02T13:34:05.357Z,16.19
2022-10-02T13:36:41.316Z,16.20
2022-10-02T13:39:20.842Z,16.28
2022-10-02T13:41:59.838Z,16.30
2022-10-02T13:44:35.577Z,16.16
2022-10-02T13:47:18.697Z,16.31
2022-10-02T13:49:58.230Z,16.25
2022-10-02T13:52:33.472Z,16.20
2022-10-02T13:55:12.719Z,16.16
2022-10-02T13:57:49.926Z,16.17
2022-10-02T14:00:24.186Z,16.30
2022-10-02T14:03:05.836Z,16.38
2022-10-02T14:05:38.937Z,16.44
2022-10-02T14:08:16.283Z,16.43
2022-10-02T14:10:54.068Z,16.31
2022-10-02T14:13:34.813Z,16.34
2022-10-02T14:16:15.901Z,16.32
2022-10-02T14:19:00.964Z,16.23
2022-10-02T14:21:32.646Z,16.21
2022-10-02T14:24:20.498Z,16.23
2022-10-02T14:26:57.741Z,16.22
2022-10-02T14:29:39.059Z,16.07
2022-10-02T14:32:27.715Z,16.05
2022-10-02T14:35:25.715Z,16.09
2022-10-02T14:38:22.949Z,16.01
2022-10-02T14:40:53.268Z,15.92
2022-10-02T14:43:39.485Z,15.93
2022-10-02T14:46:20.932Z,16.06
2022-10-02T14:49:12.790Z,16.21
2022-10-02T14:52:00.438Z,16.09
2022-10-02T14:54:41.624Z,16.15
2022-10-02T14:57:29.827Z,16.13
2022-10-02T15:00:06.894Z,16.09
2022-10-02T15:02:57.377Z,16.08
2022-10-02T15:05:39.089Z,16.06
2022-10-02T15:08:14.340Z,16.16
2022-10-02T15:10:43.485Z,16.02
2022-10-02T15:13:15.931Z,16.07
2022-10-02T15:15:48.010Z,16.04
2022-10-02T15:18:25.652Z,16.16
2022-10-02T15:20:59.497Z,16.10
2022-10-02T15:23:46.115Z,16.10
2022-10-02T15:26:33.785Z,16.17
2022-10-02T15:29:11.604Z,15.93
2022-10-02T15:31:44.213Z,15.93
2022-10-02T15:34:21.555Z,15.94
2022-10-02T15:37:05.204Z,15.81
2022-10-02T15:39:45.166Z,15.90
2022-10-02T15:42:17.416Z,15.83
2022-10-02T15:45:07.716Z,15.65
2022-10-02T15:47:49.767Z,15.86
2022-10-02T15:50:28.147Z,15.77
2022-10-02T15:53:08.238Z,15.68
2022-10-02T15:55:45.799Z,15.96
2022-10-02T15:58:24.400Z,15.66
2022-10-02T16:01:08.751Z,15.67
2022-10-02T16:03:44.727Z,15.93
2022-10-02T16:06:20.834Z,15.87
2022-10-02T16:09:10.477Z,15.63
2022-10-02T16:11:52.743Z,15.72
2022-10-02T16:14:28.771Z,15.46
2022-10-02T16:17:14.262Z,15.52
2022-10-02T16:19:54.127Z,15.48
2022-10-02T16:22:31.415Z,15.67
2022-10-02T16:25:14.117Z,15.70
2022-10-02T16:28:05.897Z,15.88
2022-10-02T16:30:39.900Z,15.74
2022-10-02T16:33:20.498Z,15.77
2022-10-02T16:36:10.519Z,15.55
2022-10-02T16:38:48.697Z,15.80
2022-10-02T16:41:31.045Z,15.72
2022-10-02T16:44:10.921Z,15.73
2022-10-02T16:46:44.110Z,15.64
2022-10-02T16:49:21.710Z,15.74
2022-10-02T16:51:56.475Z,15.63
2022-10-02T16:54:28.463Z,15.74
2022-10-02T16:56:59.518Z,15.73
2022-10-02T16:59:31.433Z,15.67
2022-10-02T17:02:17.442Z,15.67
2022-10-02T17:04:55.316Z,15.67
2022-10-02T17:07:35.214Z,15.79
2022-10-02T17:10:09.121Z,15.52
2022-10-02T17:12:46.717Z,15.62
2022-10-02T17:15:22.961Z,15.69
2022-10-02T17:18:14.597Z,15.66
2022-10-02T17:20:44.802Z,15.60
2022-10-02T17:23:17.871Z,15.45
2022-10-02T17:25:51.741Z,15.51
2022-10-02T17:28:23.324Z,15.47
2022-10-02T17:31:06.343Z,15.38
2022-10-02T17:33:45.408Z,15.18
2022-10-02T17:36:19.468Z,15.42
2022-10-02T17:39:07.144Z,15.54
2022-10-02T17:41:47.087Z,15.44
2022-10-02T17:44:27.202Z,15.40
2022-10-02T17:47:23.662Z,15.19
2022-10-02T17:50:01.674Z,15.07
2022-10-02T17:52:53.768Z,15.04
2022-10-02T17:55:52.373Z,15.14
2022-10-02T17:58:25.525Z,15.05
2022-10-02T18:01:06.046Z,15.02
2022-10-02T18:03:59.829Z,15.23
2022-10-02T18:06:37.970Z,15.24
2022-10-02T18:09:18.091Z,14.97
2022-10-02T18:11:59.357Z,15.15
2022-10-02T18:14:48.144Z,15.27
2022-10-02T18:17:21.930Z,15.32
2022-10-02T18:19:56.735Z,15.14
2022-10-02T18:22:34.098Z,15.00
2022-10-02T18:25:14.193Z,15.16
2022-10-02T18:28:19.116Z,15.29
2022-10-02T18:30:50.104Z,15.24
2022-10-02T18:33:56.848Z,15.21
2022-10-02T18:36:37.100Z,15.03
2022-10-02T18:39:13.677Z,15.03
2022-10-02T18:41:53.476Z,15.10
2022-10-02T18:44:38.681Z,15.31
2022-10-02T18:47:12.195Z,15.35
2022-10-02T18:49:48.820Z,15.11
2022-10-02T18:52:58.092Z,15.26
2022-10-02T18:56:03.145Z,15.20
2022-10-02T18:58:47.627Z,15.32
2022-10-02T19:01:36.771Z,15.35
2022-10-02T19:04:48.907Z,15.37
2022-10-02T19:07:19.215Z,15.34
2022-10-02T19:09:47.660Z,15.48
2022-10-02T19:12:18.886Z,15.36
2022-10-02T19:14:46.905Z,15.25
2022-10-02T19:17:17.792Z,15.13
2022-10-02T19:19:45.608Z,15.14
2022-10-02T19:22:19.995Z,15.14
2022-10-02T19:24:49.388Z,15.08
2022-10-02T19:27:24.069Z,15.29
2022-10-02T19:29:56.257Z,15.30
2022-10-02T19:32:27.270Z,15.12
2022-10-02T19:35:01.433Z,15.21
2022-10-02T19:37:29.662Z,15.20
2022-10-02T19:40:00.513Z,15.26
2022-10-02T19:42:31.908Z,15.13
2022-10-02T19:45:02.846Z,15.32
2022-10-02T19:47:33.889Z,15.14
2022-10-02T19:50:04.102Z,15.19
2022-10-02T19:52:36.899Z,15.18
2022-10-02T19:55:07.229Z,15.25
2022-10-02T19:57:40.040Z,15.11
2022-10-02T20:00:15.426Z,15.16
2022-10-02T20:02:46.337Z,15.21
2022-10-02T20:05:20.502Z,15.24
2022-10-02T20:07:49.468Z,15.00
2022-10-02T20:10:22.145Z,15.14
2022-10-02T20:12:55.293Z,15.15
2022-10-02T20:15:39.292Z,15.15
2022-10-02T20:18:08.081Z,15.18
2022-10-02T20:20:37.122Z,14.86
2022-10-02T20:23:08.616Z,15.15
2022-10-02T20:25:39.684Z,15.11
2022-10-02T20:28:15.129Z,14.85
2022-10-02T20:30:47.004Z,15.02
2022-10-02T20:33:19.064Z,14.96
2022-10-02T20:35:50.642Z,15.05
2022-10-02T20:38:22.073Z,15.00
2022-10-02T20:40:53.326Z,15.15
2022-10-02T20:43:25.883Z,14.99
2022-10-02T20:46:04.911Z,15.37
2022-10-02T20:49:07.905Z,14.92
2022-10-02T20:51:57.051Z,15.03
2022-10-02T20:54:32.930Z,15.05
2022-10-02T20:57:43.453Z,15.13
2022-10-02T21:00:20.806Z,15.11
2022-10-02T21:03:18.519Z,14.82
2022-10-02T21:06:16.064Z,14.96
2022-10-02T21:08:59.957Z,15.08
2022-10-02T21:11:35.666Z,14.86
2022-10-02T21:14:41.481Z,14.80
2022-10-02T21:17:33.360Z,15.10
2022-10-02T21:20:51.132Z,14.89
2022-10-02T21:23:34.429Z,14.82
2022-10-02T21:26:26.982Z,14.83
2022-10-02T21:29:15.943Z,14.71
2022-10-02T21:31:52.154Z,14.77
2022-10-02T21:34:31.862Z,14.93
2022-10-02T21:37:00.710Z,14.84
2022-10-02T21:43:06.645Z,14.63
2022-10-02T21:45:58.432Z,14.58
2022-10-02T21:49:05.204Z,14.70
2022-10-02T21:51:51.061Z,14.82
2022-10-02T21:54:44.914Z,14.62
2022-10-02T21:57:29.392Z,14.59
2022-10-02T22:00:09.577Z,14.55
2022-10-02T22:03:13.952Z,14.65
2022-10-02T22:06:05.348Z,14.65
2022-10-02T22:08:43.928Z,14.61
2022-10-02T22:11:15.809Z,14.25
2022-10-02T22:13:44.331Z,14.51
2022-10-02T22:16:22.123Z,14.47
2022-10-02T22:18:52.157Z,14.44
2022-10-02T22:21:36.631Z,14.42
2022-10-02T22:24:20.221Z,14.22
2022-10-02T22:27:03.472Z,14.24
2022-10-02T22:29:44.797Z,14.51
2022-10-02T22:32:46.801Z,14.47
2022-10-02T22:35:25.569Z,14.47
2022-10-02T22:38:06.113Z,14.52
2022-10-02T22:40:45.682Z,14.24
2022-10-02T22:43:19.197Z,14.51
2022-10-02T22:45:49.809Z,14.43
2022-10-02T22:48:25.866Z,14.34
2022-10-02T22:50:56.706Z,14.42
2022-10-02T22:53:28.380Z,14.50
2022-10-02T22:55:58.471Z,14.36
2022-10-02T22:58:33.713Z,14.63
2022-10-02T23:01:07.696Z,14.50
2022-10-02T23:03:40.938Z,14.58
2022-10-02T23:06:15.296Z,14.58
2022-10-02T23:08:48.058Z,14.39
2022-10-02T23:11:20.813Z,14.46
2022-10-02T23:13:51.968Z,14.33
2022-10-02T23:16:25.159Z,14.13
2022-10-02T23:18:58.941Z,14.54
2022-10-02T23:21:32.603Z,14.29
2022-10-02T23:24:05.645Z,14.32
2022-10-02T23:26:38.154Z,14.29
2022-10-02T23:29:26.905Z,14.53
2022-10-02T23:31:59.238Z,14.32
2022-10-02T23:34:36.021Z,14.35
2022-10-02T23:37:15.177Z,14.45
2022-10-02T23:39:48.492Z,14.39
2022-10-02T23:42:21.492Z,14.23
2022-10-02T23:44:55.735Z,14.16
2022-10-02T23:47:31.046Z,14.13
2022-10-02T23:49:59.853Z,14.18
2022-10-02T23:52:43.354Z,14.18
2022-10-02T23:55:27.358Z,14.31
2022-10-02T23:58:23.713Z,14.39
